Time;durP1;ratioP1;P1;durP2;ratioP2;P2;SDS_P1;SDS_P2;PMS_P1;PMS_P2;Temp;Humidity;BMP_temperature;BMP_pressure;BME280_temperature;BME280_humidity;BME280_pressure;Samples;Min_cycle;Max_cycle;Signal;HPM_P1;HPM_P2
2022/03/02 00:01:38;;;;;;;12.83;11.50;;;4.60;55.80;;;;;;5024692;28;20196;-88
2022/03/02 00:04:04;;;;;;;12.93;11.63;;;4.60;58.50;;;;;;5010291;28;20205;-88
2022/03/02 00:06:29;;;;;;;14.77;12.00;;;4.70;58.60;;;;;;5027524;28;20569;-87
2022/03/02 00:08:55;;;;;;;12.97;11.13;;;4.70;55.40;;;;;;5034536;28;20298;-88
2022/03/02 00:11:21;;;;;;;13.40;11.77;;;4.80;55.70;;;;;;5039830;28;20205;-87
2022/03/02 00:13:46;;;;;;;12.23;10.93;;;4.90;57.50;;;;;;5048174;28;20266;-87
2022/03/02 00:16:13;;;;;;;12.60;11.30;;;4.90;57.00;;;;;;5030161;28;20241;-88
2022/03/02 00:18:39;;;;;;;13.90;11.60;;;4.90;57.10;;;;;;5026198;28;20332;-88
2022/03/02 00:21:05;;;;;;;15.07;11.33;;;4.90;56.50;;;;;;5029312;28;20193;-89
2022/03/02 00:23:31;;;;;;;12.90;11.17;;;5.00;55.70;;;;;;5029054;28;20185;-89
2022/03/02 00:25:57;;;;;;;14.07;11.83;;;5.10;53.30;;;;;;5027440;28;20235;-91
2022/03/02 00:28:23;;;;;;;13.27;11.87;;;5.10;52.60;;;;;;5032279;28;20204;-87
2022/03/02 00:30:49;;;;;;;13.73;11.63;;;5.10;52.50;;;;;;5035103;28;20533;-89
2022/03/02 00:33:15;;;;;;;14.20;12.47;;;5.10;51.70;;;;;;4999629;28;20266;-88
2022/03/02 00:35:41;;;;;;;14.57;13.10;;;5.10;52.60;;;;;;5015712;28;20276;-88
2022/03/02 00:38:10;;;;;;;12.57;11.33;;;5.10;52.30;;;;;;5010833;28;20264;-88
2022/03/02 00:40:40;;;;;;;14.20;12.37;;;5.00;51.40;;;;;;5019020;28;20185;-87
2022/03/02 00:43:08;;;;;;;12.67;11.37;;;5.10;52.40;;;;;;5030989;28;20190;-88
2022/03/02 00:45:34;;;;;;;14.27;12.63;;;5.10;52.90;;;;;;5010530;28;20217;-87
2022/03/02 00:48:01;;;;;;;13.77;12.37;;;5.20;50.90;;;;;;5013195;28;20189;-88
2022/03/02 00:50:28;;;;;;;18.20;11.93;;;5.20;52.70;;;;;;4995609;28;20284;-87
2022/03/02 00:52:55;;;;;;;13.90;12.13;;;5.20;53.20;;;;;;5030448;28;20189;-87
2022/03/02 00:55:22;;;;;;;13.40;12.07;;;5.20;53.20;;;;;;5037544;28;20264;-87
2022/03/02 00:57:47;;;;;;;14.67;12.23;;;5.30;53.00;;;;;;5027358;28;20264;-88
2022/03/02 01:00:14;;;;;;;15.70;12.03;;;5.30;52.80;;;;;;5034875;28;20197;-87
2022/03/02 01:02:40;;;;;;;13.30;11.93;;;5.20;52.90;;;;;;5033822;28;20185;-87
2022/03/02 01:05:07;;;;;;;13.37;11.57;;;5.20;53.20;;;;;;5025523;28;20270;-88
2022/03/02 01:07:34;;;;;;;13.13;11.87;;;5.10;53.10;;;;;;5010208;28;20315;-88
2022/03/02 01:10:01;;;;;;;13.33;12.00;;;4.90;54.20;;;;;;5027237;28;20620;-87
2022/03/02 01:12:27;;;;;;;13.10;11.70;;;4.70;55.20;;;;;;5032391;28;20182;-88
2022/03/02 01:14:53;;;;;;;14.20;12.23;;;4.70;55.80;;;;;;5035703;28;20220;-88
2022/03/02 01:17:20;;;;;;;13.47;12.13;;;4.70;54.50;;;;;;5039638;28;20232;-88
2022/03/02 01:19:47;;;;;;;14.47;11.60;;;4.80;53.80;;;;;;5028160;28;20185;-88
2022/03/02 01:22:13;;;;;;;14.87;12.30;;;4.50;53.00;;;;;;5015861;28;20195;-88
2022/03/02 01:24:40;;;;;;;15.67;12.60;;;4.10;55.00;;;;;;5035573;28;20220;-88
2022/03/02 01:27:05;;;;;;;12.37;10.97;;;4.10;56.90;;;;;;5008064;28;20205;-87
2022/03/02 01:29:33;;;;;;;12.57;10.97;;;4.30;56.70;;;;;;5028736;28;20212;-88
2022/03/02 01:32:00;;;;;;;14.83;11.70;;;4.30;56.10;;;;;;5009718;28;20216;-88
2022/03/02 01:34:27;;;;;;;14.40;12.13;;;4.40;57.10;;;;;;5030386;28;20276;-88
2022/03/02 01:36:53;;;;;;;13.27;11.90;;;4.40;58.10;;;;;;5035677;28;20280;-88
2022/03/02 01:39:19;;;;;;;13.23;11.07;;;4.30;58.60;;;;;;5014524;28;20779;-88
2022/03/02 01:41:45;;;;;;;14.03;11.40;;;4.30;58.60;;;;;;5028179;28;20190;-87
2022/03/02 01:44:12;;;;;;;13.27;10.77;;;4.30;58.80;;;;;;5011329;28;20190;-87
2022/03/02 01:46:38;;;;;;;13.03;11.00;;;4.20;59.20;;;;;;5028734;28;20223;-87
2022/03/02 01:49:04;;;;;;;13.10;11.67;;;4.20;59.20;;;;;;5030136;28;20225;-87
2022/03/02 01:51:30;;;;;;;14.83;12.33;;;4.20;59.40;;;;;;5013226;28;20664;-87
2022/03/02 01:53:56;;;;;;;16.10;12.13;;;4.20;59.10;;;;;;5032395;28;20185;-87
2022/03/02 01:56:22;;;;;;;13.00;11.53;;;4.20;58.70;;;;;;5032577;28;20244;-87
2022/03/02 01:58:48;;;;;;;12.97;11.37;;;4.20;58.70;;;;;;5034916;28;20204;-88
2022/03/02 02:01:14;;;;;;;12.37;11.07;;;4.30;58.30;;;;;;5040044;28;20189;-88
2022/03/02 02:03:40;;;;;;;13.23;11.83;;;4.30;58.50;;;;;;5027431;28;20216;-88
2022/03/02 02:06:08;;;;;;;12.27;11.07;;;4.30;58.20;;;;;;5025248;28;20201;-88
2022/03/02 02:08:33;;;;;;;13.17;11.37;;;4.30;59.10;;;;;;5022639;28;20221;-87
2022/03/02 02:11:00;;;;;;;12.33;10.97;;;4.20;59.90;;;;;;5013373;28;20189;-88
2022/03/02 02:13:30;;;;;;;12.27;10.97;;;4.20;59.90;;;;;;5010401;28;20189;-88
2022/03/02 02:15:56;;;;;;;13.03;10.57;;;4.30;59.90;;;;;;5025354;28;20217;-88
2022/03/02 02:18:22;;;;;;;13.17;11.83;;;4.20;60.30;;;;;;5026500;28;20276;-88
2022/03/02 02:20:48;;;;;;;15.90;11.10;;;4.20;60.60;;;;;;5028081;28;20220;-88
2022/03/02 02:23:14;;;;;;;13.00;11.67;;;4.20;60.50;;;;;;5030140;28;20190;-88
2022/03/02 02:25:41;;;;;;;13.03;11.20;;;4.00;62.10;;;;;;5032776;28;20204;-87
2022/03/02 02:28:10;;;;;;;12.97;11.23;;;4.00;61.60;;;;;;5026316;28;20198;-88
2022/03/02 02:30:37;;;;;;;12.40;11.23;;;4.00;61.20;;;;;;5012558;28;20209;-87
2022/03/02 02:33:04;;;;;;;11.47;10.20;;;4.00;61.40;;;;;;5029188;28;20210;-88
2022/03/02 02:35:29;;;;;;;15.20;11.30;;;4.00;61.50;;;;;;5006221;28;20325;-88
2022/03/02 02:37:59;;;;;;;11.67;10.47;;;4.00;61.40;;;;;;5030463;28;20277;-87
2022/03/02 02:40:26;;;;;;;11.63;10.03;;;4.00;61.80;;;;;;5036662;28;20202;-87
2022/03/02 02:42:52;;;;;;;11.97;10.57;;;4.00;61.50;;;;;;5035803;28;20208;-86
2022/03/02 02:45:22;;;;;;;11.67;10.30;;;4.00;61.00;;;;;;5027931;28;20212;-88
2022/03/02 02:47:50;;;;;;;13.50;11.20;;;4.10;60.60;;;;;;5021460;28;20202;-87
2022/03/02 02:50:29;;;;;;;12.97;11.03;;;4.10;58.90;;;;;;5030709;28;20209;-87
2022/03/02 02:52:58;;;;;;;12.20;10.40;;;4.10;58.50;;;;;;5011920;28;20192;-88
2022/03/02 02:55:26;;;;;;;11.63;9.90;;;4.10;60.20;;;;;;4996158;28;20257;-86
2022/03/02 02:57:53;;;;;;;13.23;9.87;;;4.00;60.10;;;;;;5019617;28;20197;-86
2022/03/02 03:00:20;;;;;;;11.70;10.50;;;4.10;60.30;;;;;;5037670;28;20295;-87
2022/03/02 03:02:49;;;;;;;11.90;10.43;;;3.90;61.00;;;;;;5012767;28;20196;-86
2022/03/02 03:05:17;;;;;;;11.43;10.23;;;3.80;61.20;;;;;;5033462;28;20225;-87
2022/03/02 03:07:44;;;;;;;12.40;10.67;;;3.70;61.50;;;;;;5018207;28;20229;-87
2022/03/02 03:10:12;;;;;;;12.90;11.60;;;3.70;61.70;;;;;;5032448;28;20213;-88
2022/03/02 03:12:38;;;;;;;11.70;10.60;;;3.70;61.50;;;;;;5032327;28;20220;-87
2022/03/02 03:15:06;;;;;;;12.30;10.80;;;3.70;61.10;;;;;;5039318;28;20233;-88
2022/03/02 03:17:32;;;;;;;13.47;11.20;;;3.60;61.00;;;;;;5026153;28;20220;-87
2022/03/02 03:19:58;;;;;;;12.33;11.03;;;3.70;61.20;;;;;;5028233;28;20185;-88
2022/03/02 03:22:24;;;;;;;13.20;11.00;;;3.70;61.40;;;;;;5035086;28;20233;-87
2022/03/02 03:24:50;;;;;;;12.17;10.37;;;3.70;61.20;;;;;;5030073;28;20216;-87
2022/03/02 03:27:16;;;;;;;11.93;10.73;;;3.60;61.40;;;;;;5026780;28;20344;-87
2022/03/02 03:29:42;;;;;;;13.83;11.70;;;3.60;61.20;;;;;;5023600;28;20224;-88
2022/03/02 03:32:09;;;;;;;11.37;10.17;;;3.60;60.70;;;;;;5036647;28;20205;-87
2022/03/02 03:34:35;;;;;;;13.67;11.63;;;3.60;61.00;;;;;;5002878;28;20237;-87
2022/03/02 03:37:00;;;;;;;14.13;10.90;;;3.60;60.80;;;;;;5030614;28;20863;-87
2022/03/02 03:39:26;;;;;;;11.83;9.70;;;3.60;61.90;;;;;;5027504;28;20252;-87
2022/03/02 03:41:52;;;;;;;12.50;11.17;;;3.50;62.10;;;;;;5017135;28;20193;-87
2022/03/02 03:44:18;;;;;;;12.20;10.80;;;3.50;61.90;;;;;;5016282;28;20203;-87
2022/03/02 03:46:43;;;;;;;13.77;11.87;;;3.50;61.40;;;;;;5036019;28;20202;-86
2022/03/02 03:49:09;;;;;;;14.00;12.50;;;3.50;61.00;;;;;;5021276;28;20227;-87
2022/03/02 03:51:35;;;;;;;15.60;12.67;;;3.50;60.90;;;;;;5012596;28;20205;-88
2022/03/02 03:54:01;;;;;;;14.70;12.17;;;3.50;61.70;;;;;;5030910;28;20197;-87
2022/03/02 03:56:30;;;;;;;13.17;11.67;;;3.50;61.80;;;;;;5026641;28;20213;-87
2022/03/02 03:58:58;;;;;;;10.83;9.73;;;3.40;62.20;;;;;;5028443;28;20200;-87
2022/03/02 04:01:24;;;;;;;13.10;11.60;;;3.40;62.20;;;;;;5032218;28;20202;-87
2022/03/02 04:03:50;;;;;;;12.53;11.13;;;3.40;62.20;;;;;;5029799;28;20624;-87
2022/03/02 04:06:16;;;;;;;13.10;10.17;;;3.40;62.00;;;;;;5020558;28;20216;-87
2022/03/02 04:08:42;;;;;;;13.17;11.77;;;3.30;62.40;;;;;;5020464;28;20714;-87
2022/03/02 04:11:08;;;;;;;12.83;11.17;;;3.20;62.90;;;;;;5031853;28;20216;-88
2022/03/02 04:13:34;;;;;;;12.83;10.40;;;3.20;62.40;;;;;;5041149;28;20255;-88
2022/03/02 04:15:59;;;;;;;13.20;11.43;;;3.20;63.10;;;;;;5015413;28;20219;-87
2022/03/02 04:18:25;;;;;;;12.17;10.90;;;3.10;63.10;;;;;;5030367;28;20186;-87
2022/03/02 04:20:52;;;;;;;11.80;10.60;;;3.10;63.20;;;;;;5031465;28;20178;-86
2022/03/02 04:23:18;;;;;;;12.37;11.27;;;3.10;63.50;;;;;;5027838;28;20185;-88
2022/03/02 04:25:44;;;;;;;12.03;10.83;;;3.10;63.60;;;;;;5029420;28;20232;-88
2022/03/02 04:28:10;;;;;;;15.53;11.57;;;3.00;63.50;;;;;;5031322;28;20186;-88
2022/03/02 04:30:37;;;;;;;14.03;11.20;;;2.90;63.60;;;;;;5038835;28;20671;-88
2022/03/02 04:33:03;;;;;;;12.27;10.97;;;2.90;63.90;;;;;;5015068;28;20193;-87
2022/03/02 04:35:29;;;;;;;13.87;11.80;;;2.90;64.10;;;;;;5015660;28;20217;-87
2022/03/02 04:37:55;;;;;;;14.00;11.50;;;3.00;62.90;;;;;;5006577;28;20189;-87
2022/03/02 04:40:20;;;;;;;15.03;11.20;;;2.90;63.40;;;;;;5030015;28;20194;-88
2022/03/02 04:42:46;;;;;;;12.43;10.80;;;2.90;63.10;;;;;;5032043;28;20202;-87
2022/03/02 04:45:12;;;;;;;16.70;11.57;;;2.90;64.20;;;;;;5007000;28;20218;-87
2022/03/02 04:47:38;;;;;;;12.67;10.67;;;2.80;63.70;;;;;;5032549;28;20323;-87
2022/03/02 04:50:06;;;;;;;11.70;10.50;;;2.90;64.10;;;;;;5033663;28;20213;-87
2022/03/02 04:52:32;;;;;;;12.03;10.83;;;2.80;63.60;;;;;;5025932;28;20546;-87
2022/03/02 04:55:07;;;;;;;13.03;10.53;;;2.80;63.80;;;;;;5030538;28;20273;-87
2022/03/02 04:57:54;;;;;;;13.93;11.03;;;2.30;63.70;;;;;;5036822;28;20185;-87
2022/03/02 05:00:23;;;;;;;13.23;11.53;;;2.20;65.90;;;;;;5028111;28;20194;-88
2022/03/02 05:02:49;;;;;;;11.93;10.50;;;2.30;65.90;;;;;;5004231;28;20185;-87
2022/03/02 05:05:17;;;;;;;12.50;11.10;;;2.30;65.90;;;;;;5020383;28;20235;-87
2022/03/02 05:07:44;;;;;;;12.30;10.40;;;2.40;65.70;;;;;;5023214;28;20243;-87
2022/03/02 05:10:13;;;;;;;11.73;10.53;;;2.50;65.30;;;;;;4992204;28;20222;-87
2022/03/02 05:12:39;;;;;;;12.07;10.30;;;2.30;65.50;;;;;;5009077;28;20222;-87
2022/03/02 05:15:07;;;;;;;12.20;10.93;;;2.40;65.20;;;;;;5022247;28;20225;-87
2022/03/02 05:17:33;;;;;;;12.13;10.77;;;2.40;64.80;;;;;;5021912;28;20193;-87
2022/03/02 05:19:58;;;;;;;12.57;10.10;;;2.40;64.90;;;;;;5020367;28;20201;-87
2022/03/02 05:22:24;;;;;;;11.83;10.40;;;2.40;64.60;;;;;;5026368;28;20265;-87
2022/03/02 05:24:50;;;;;;;11.57;10.37;;;2.50;64.50;;;;;;4997793;28;20277;-87
2022/03/02 05:27:15;;;;;;;13.17;11.40;;;2.50;64.90;;;;;;5028341;28;20216;-87
2022/03/02 05:29:41;;;;;;;12.07;10.83;;;2.50;64.50;;;;;;5009921;28;20222;-87
2022/03/02 05:32:07;;;;;;;16.83;11.10;;;2.50;63.80;;;;;;5024001;28;20186;-87
2022/03/02 05:34:33;;;;;;;17.40;11.67;;;2.50;64.10;;;;;;5020966;28;20204;-87
2022/03/02 05:37:00;;;;;;;13.37;11.23;;;2.40;64.30;;;;;;5005836;28;20281;-86
2022/03/02 05:39:26;;;;;;;14.00;10.80;;;2.30;65.80;;;;;;5012769;28;20207;-87
2022/03/02 05:41:52;;;;;;;12.27;10.07;;;2.30;66.20;;;;;;5034776;28;20257;-87
2022/03/02 05:44:17;;;;;;;11.10;10.00;;;2.30;66.90;;;;;;5019642;28;20193;-86
2022/03/02 05:46:44;;;;;;;13.20;10.50;;;2.30;67.00;;;;;;4997646;28;20658;-86
2022/03/02 05:49:10;;;;;;;14.20;10.80;;;2.30;66.50;;;;;;5023959;28;20209;-87
2022/03/02 05:51:36;;;;;;;13.27;10.03;;;2.20;66.20;;;;;;5043842;28;20178;-86
2022/03/02 05:54:08;;;;;;;16.03;10.77;;;2.20;66.90;;;;;;5025966;28;20197;-87
2022/03/02 05:56:37;;;;;;;18.47;10.30;;;2.20;66.20;;;;;;5032341;23;20247;-87
2022/03/02 05:59:10;;;;;;;17.00;10.97;;;2.20;66.60;;;;;;5043899;28;20189;-88
2022/03/02 06:01:36;;;;;;;14.13;11.17;;;2.20;66.40;;;;;;5037192;28;20189;-87
2022/03/02 06:04:04;;;;;;;13.57;10.83;;;2.20;66.40;;;;;;5035585;28;20181;-88
2022/03/02 06:06:35;;;;;;;13.10;10.90;;;2.10;66.30;;;;;;5035436;28;20212;-88
2022/03/02 06:09:03;;;;;;;11.93;10.33;;;2.20;66.80;;;;;;5033683;28;20212;-88
2022/03/02 06:11:29;;;;;;;16.57;10.67;;;2.20;66.40;;;;;;5022335;28;20261;-88
2022/03/02 06:13:56;;;;;;;13.80;12.27;;;2.20;66.10;;;;;;5022100;28;20189;-88
2022/03/02 06:16:22;;;;;;;14.63;11.07;;;2.30;66.30;;;;;;5023627;28;20231;-88
2022/03/02 06:18:48;;;;;;;13.30;10.63;;;2.20;65.90;;;;;;5021036;28;20259;-87
2022/03/02 06:21:23;;;;;;;12.03;10.93;;;2.30;66.40;;;;;;5017596;28;20198;-88
2022/03/02 06:23:49;;;;;;;12.47;11.20;;;2.40;66.10;;;;;;5020106;28;20185;-87
2022/03/02 06:26:17;;;;;;;13.20;11.70;;;2.40;65.80;;;;;;5004069;28;20219;-87
2022/03/02 06:28:43;;;;;;;11.77;10.57;;;2.30;65.60;;;;;;5024389;28;20686;-88
2022/03/02 06:31:09;;;;;;;18.70;12.07;;;2.20;66.20;;;;;;5038325;28;20256;-88
2022/03/02 06:33:35;;;;;;;12.73;10.57;;;2.20;66.60;;;;;;5015776;28;20184;-88
2022/03/02 06:36:01;;;;;;;14.80;11.30;;;2.10;67.40;;;;;;5044266;28;20619;-88
2022/03/02 06:38:27;;;;;;;12.53;11.00;;;2.20;67.00;;;;;;5024378;28;20266;-88
2022/03/02 06:40:56;;;;;;;13.20;11.80;;;2.20;67.20;;;;;;5023729;28;20197;-87
2022/03/02 06:43:23;;;;;;;14.93;11.77;;;2.20;67.10;;;;;;5042007;28;20251;-87
2022/03/02 06:45:57;;;;;;;14.77;12.53;;;2.30;67.60;;;;;;5011220;28;20262;-88
2022/03/02 06:48:30;;;;;;;12.10;10.80;;;2.30;67.20;;;;;;5044732;28;20911;-87
2022/03/02 06:51:01;;;;;;;14.60;12.83;;;2.40;67.30;;;;;;5031271;28;20913;-88
2022/03/02 06:53:31;;;;;;;19.97;14.13;;;2.50;67.20;;;;;;5022101;28;20181;-88
2022/03/02 06:56:00;;;;;;;17.33;14.80;;;2.50;66.90;;;;;;5022887;28;20221;-88
2022/03/02 06:58:28;;;;;;;15.87;14.27;;;2.50;67.00;;;;;;5030835;28;20729;-88
2022/03/02 07:00:56;;;;;;;14.97;12.90;;;2.50;67.50;;;;;;5031813;28;20261;-88
2022/03/02 07:03:28;;;;;;;17.50;13.03;;;2.50;67.40;;;;;;5036897;28;20229;-88
2022/03/02 07:05:55;;;;;;;13.23;11.63;;;2.60;66.90;;;;;;5011976;28;20324;-88
2022/03/02 07:08:24;;;;;;;18.20;13.47;;;2.60;67.30;;;;;;5021419;28;20247;-87
2022/03/02 07:10:51;;;;;;;16.10;14.27;;;2.60;67.60;;;;;;5005471;28;20197;-88
2022/03/02 07:13:17;;;;;;;15.03;13.27;;;2.60;67.90;;;;;;5026587;28;20845;-89
2022/03/02 07:15:43;;;;;;;14.13;12.50;;;2.60;67.50;;;;;;5044212;28;20227;-89
2022/03/02 07:18:08;;;;;;;13.93;12.43;;;2.80;67.20;;;;;;5032863;28;20180;-88
2022/03/02 07:20:40;;;;;;;13.60;12.23;;;2.80;67.20;;;;;;5042118;28;20189;-89
2022/03/02 07:23:11;;;;;;;19.87;15.63;;;2.90;67.10;;;;;;5024103;28;20204;-87
2022/03/02 07:25:40;;;;;;;23.80;18.67;;;2.70;67.00;;;;;;5017559;28;20209;-87
2022/03/02 07:28:09;;;;;;;17.77;15.03;;;2.80;66.80;;;;;;5038401;28;20631;-89
2022/03/02 07:30:35;;;;;;;20.93;15.17;;;2.80;66.80;;;;;;5037147;28;20217;-89
2022/03/02 07:33:03;;;;;;;19.47;16.47;;;2.90;66.40;;;;;;5012244;28;20510;-89
2022/03/02 07:35:37;;;;;;;22.10;14.57;;;2.90;66.10;;;;;;5042274;28;20201;-89
2022/03/02 07:38:07;;;;;;;15.03;13.43;;;2.70;66.60;;;;;;5037789;28;20180;-88
2022/03/02 07:40:34;;;;;;;14.17;12.67;;;2.70;67.20;;;;;;5041013;28;20650;-88
2022/03/02 07:43:00;;;;;;;15.33;12.77;;;2.60;68.50;;;;;;5020488;28;20200;-89
2022/03/02 07:45:26;;;;;;;16.40;12.60;;;2.60;69.80;;;;;;5023757;28;20223;-89
2022/03/02 07:47:52;;;;;;;13.00;11.70;;;2.60;70.80;;;;;;5024193;28;20203;-88
2022/03/02 07:50:18;;;;;;;14.43;12.93;;;2.70;71.70;;;;;;5017509;28;20272;-87
2022/03/02 07:52:51;;;;;;;14.20;12.03;;;2.60;71.90;;;;;;5021140;28;20197;-88
2022/03/02 07:55:18;;;;;;;13.63;12.17;;;2.50;72.80;;;;;;5037032;28;20281;-89
2022/03/02 07:57:44;;;;;;;15.03;13.37;;;2.70;71.90;;;;;;5023015;28;20177;-89
2022/03/02 08:00:12;;;;;;;14.77;13.20;;;2.80;70.90;;;;;;5026413;28;20189;-91
2022/03/02 08:02:43;;;;;;;14.07;12.67;;;2.90;70.40;;;;;;5030905;28;20205;-89
2022/03/02 08:05:10;;;;;;;16.80;13.90;;;2.90;69.80;;;;;;5044295;28;20240;-89
2022/03/02 08:07:36;;;;;;;18.00;14.57;;;3.00;69.30;;;;;;5027697;28;20212;-90
2022/03/02 08:10:04;;;;;;;17.73;13.60;;;3.20;67.50;;;;;;5048671;28;20197;-89
2022/03/02 08:12:30;;;;;;;18.50;13.00;;;3.20;67.10;;;;;;5044360;28;20184;-89
2022/03/02 08:14:57;;;;;;;19.77;16.47;;;3.30;67.10;;;;;;5027207;28;20209;-89
2022/03/02 08:17:23;;;;;;;15.97;13.90;;;3.50;64.40;;;;;;5027549;28;20252;-89
2022/03/02 08:19:49;;;;;;;15.20;12.83;;;3.50;63.10;;;;;;5033687;28;20201;-89
2022/03/02 08:22:20;;;;;;;27.87;14.60;;;3.60;63.70;;;;;;5027287;28;20205;-89
2022/03/02 08:24:53;;;;;;;18.07;13.20;;;3.60;63.50;;;;;;5009942;28;20291;-89
2022/03/02 08:27:21;;;;;;;17.37;15.07;;;3.50;62.40;;;;;;5039597;28;20215;-90
2022/03/02 08:29:53;;;;;;;16.10;12.57;;;3.40;63.20;;;;;;5032955;28;20201;-89
2022/03/02 08:32:20;;;;;;;16.80;13.47;;;3.40;64.20;;;;;;5045483;28;20217;-89
2022/03/02 08:34:47;;;;;;;16.17;14.37;;;3.40;63.30;;;;;;5029847;28;20197;-89
2022/03/02 08:37:17;;;;;;;17.33;13.70;;;3.60;63.70;;;;;;5047513;28;20188;-89
2022/03/02 08:39:44;;;;;;;15.70;13.40;;;3.70;63.30;;;;;;5029688;28;20243;-88
2022/03/02 08:42:11;;;;;;;21.00;16.63;;;3.70;63.30;;;;;;5033441;28;20187;-89
2022/03/02 08:44:39;;;;;;;15.53;13.90;;;3.70;62.70;;;;;;5036891;28;20199;-89
2022/03/02 08:47:05;;;;;;;21.17;13.87;;;3.80;62.50;;;;;;5047035;28;20189;-89
2022/03/02 08:49:32;;;;;;;19.80;14.60;;;3.80;62.30;;;;;;5041684;28;20209;-88
2022/03/02 08:51:58;;;;;;;23.10;15.17;;;3.80;61.80;;;;;;5029343;28;20181;-89
2022/03/02 08:54:27;;;;;;;18.17;13.00;;;3.90;61.00;;;;;;5013307;28;20181;-88
2022/03/02 08:56:53;;;;;;;14.40;12.93;;;4.00;59.50;;;;;;5042871;28;20185;-88
2022/03/02 08:59:20;;;;;;;17.07;12.80;;;3.90;59.40;;;;;;5034917;28;20189;-88
2022/03/02 09:01:52;;;;;;;19.07;13.77;;;3.70;59.30;;;;;;5034680;28;20189;-88
2022/03/02 09:04:18;;;;;;;22.77;14.50;;;3.90;60.20;;;;;;5047539;28;20185;-88
2022/03/02 09:06:45;;;;;;;15.50;13.87;;;3.80;59.00;;;;;;5008595;28;20178;-88
2022/03/02 09:09:12;;;;;;;15.17;13.03;;;3.80;60.80;;;;;;5009806;28;20229;-88
2022/03/02 09:11:39;;;;;;;18.33;12.97;;;4.00;61.30;;;;;;5027910;28;20185;-88
2022/03/02 09:14:06;;;;;;;14.40;12.87;;;3.90;60.10;;;;;;5045553;28;20177;-88
2022/03/02 09:16:39;;;;;;;16.27;13.67;;;4.00;59.90;;;;;;4995364;28;20224;-88
2022/03/02 09:19:06;;;;;;;19.90;13.40;;;4.10;59.50;;;;;;5034629;28;20627;-88
2022/03/02 09:21:32;;;;;;;14.70;13.00;;;4.20;59.50;;;;;;5055575;28;20192;-88
2022/03/02 09:23:58;;;;;;;16.10;13.47;;;4.20;59.70;;;;;;5045921;28;20272;-88
2022/03/02 09:26:24;;;;;;;18.13;13.63;;;4.30;59.40;;;;;;5015724;28;20220;-88
2022/03/02 09:28:51;;;;;;;17.07;13.40;;;4.40;59.00;;;;;;5065069;28;20206;-89
2022/03/02 09:31:20;;;;;;;14.37;12.87;;;4.30;58.10;;;;;;5040860;28;20157;-88
2022/03/02 09:34:08;;;;;;;16.87;13.70;;;4.40;58.90;;;;;;5057574;28;20204;-88
2022/03/02 09:36:36;;;;;;;16.20;13.13;;;4.60;57.70;;;;;;5051387;28;20268;-88
2022/03/02 09:39:05;;;;;;;18.63;13.23;;;4.80;56.00;;;;;;5030695;28;20208;-88
2022/03/02 09:41:49;;;;;;;16.93;12.77;;;4.80;55.20;;;;;;5029947;28;20180;-88
2022/03/02 09:44:18;;;;;;;18.10;12.80;;;4.80;55.00;;;;;;5035041;28;20192;-87
2022/03/02 09:46:50;;;;;;;18.07;15.37;;;4.70;55.10;;;;;;5031000;28;20208;-90
2022/03/02 09:49:20;;;;;;;25.30;13.13;;;4.70;55.60;;;;;;5047405;28;20304;-88
2022/03/02 09:51:52;;;;;;;15.00;13.00;;;4.80;55.60;;;;;;5014599;28;20181;-88
2022/03/02 09:54:22;;;;;;;15.17;13.40;;;4.80;54.70;;;;;;5046556;28;20188;-88
2022/03/02 09:56:51;;;;;;;15.47;12.77;;;4.90;54.30;;;;;;5039378;28;20570;-87
2022/03/02 09:59:17;;;;;;;19.13;12.93;;;5.00;53.80;;;;;;5032295;28;20193;-88
2022/03/02 10:01:44;;;;;;;18.00;13.13;;;5.00;51.20;;;;;;5044809;28;20222;-88
2022/03/02 10:04:17;;;;;;;15.67;13.63;;;5.10;51.70;;;;;;5030067;28;20212;-88
2022/03/02 10:06:44;;;;;;;16.57;12.63;;;5.00;51.00;;;;;;5053804;28;20228;-88
2022/03/02 10:09:12;;;;;;;17.13;13.53;;;5.00;50.90;;;;;;5033353;28;20209;-88
2022/03/02 10:11:42;;;;;;;15.37;13.70;;;5.00;52.10;;;;;;5017499;28;20253;-87
2022/03/02 10:14:08;;;;;;;19.43;13.20;;;5.00;51.70;;;;;;5022835;28;20208;-88
2022/03/02 10:16:42;;;;;;;40.23;29.27;;;5.10;52.30;;;;;;5046373;28;20201;-86
2022/03/02 10:19:21;;;;;;;19.47;15.40;;;5.20;51.50;;;;;;5042027;28;20219;-87
2022/03/02 10:22:09;;;;;;;16.43;14.63;;;5.30;51.40;;;;;;5038932;28;20281;-88
2022/03/02 10:24:48;;;;;;;15.97;13.17;;;5.30;51.50;;;;;;5030667;28;20192;-87
2022/03/02 10:27:35;;;;;;;17.30;13.50;;;5.30;51.50;;;;;;5030126;28;20208;-87
2022/03/02 10:30:07;;;;;;;13.47;12.07;;;5.20;51.30;;;;;;5029488;28;20212;-88
2022/03/02 10:32:35;;;;;;;15.93;13.17;;;5.20;51.80;;;;;;5034718;28;20292;-87
2022/03/02 10:35:07;;;;;;;19.77;12.90;;;5.30;50.90;;;;;;5042904;28;20287;-88
2022/03/02 10:37:35;;;;;;;14.43;12.53;;;5.50;50.50;;;;;;5041590;28;20219;-88
2022/03/02 10:40:21;;;;;;;22.60;13.73;;;5.60;49.30;;;;;;5029496;28;20181;-88
2022/03/02 10:43:10;;;;;;;15.37;13.13;;;5.70;49.50;;;;;;5038630;28;20566;-87
2022/03/02 10:45:51;;;;;;;16.07;13.53;;;5.70;49.50;;;;;;5039742;28;20553;-87
2022/03/02 10:48:44;;;;;;;21.03;15.87;;;5.90;49.10;;;;;;5040400;28;20196;-88
2022/03/02 10:51:11;;;;;;;16.53;13.57;;;5.80;48.70;;;;;;5038357;28;20185;-88
2022/03/02 10:53:40;;;;;;;16.33;13.77;;;5.80;48.40;;;;;;5025570;28;20193;-87
2022/03/02 10:56:08;;;;;;;24.23;15.37;;;5.90;48.80;;;;;;5037121;28;20232;-87
2022/03/02 10:58:35;;;;;;;17.37;13.43;;;6.00;49.20;;;;;;5025217;28;20196;-89
2022/03/02 11:01:02;;;;;;;19.73;15.13;;;6.00;48.90;;;;;;5031619;28;20185;-88
2022/03/02 11:03:33;;;;;;;15.80;13.63;;;6.00;48.80;;;;;;5021545;28;20180;-91
2022/03/02 11:06:02;;;;;;;18.37;14.47;;;6.20;49.60;;;;;;5036333;28;20204;-90
2022/03/02 11:08:29;;;;;;;15.70;13.20;;;6.20;49.80;;;;;;5024039;28;20571;-89
2022/03/02 11:10:56;;;;;;;16.07;14.07;;;6.20;49.10;;;;;;5025807;28;20185;-89
2022/03/02 11:13:23;;;;;;;18.10;13.33;;;6.40;49.60;;;;;;5025287;28;20189;-89
2022/03/02 11:15:51;;;;;;;16.43;14.63;;;6.40;48.60;;;;;;5041877;28;20204;-89
2022/03/02 11:18:30;;;;;;;17.90;15.20;;;6.50;48.50;;;;;;5035883;28;20199;-89
2022/03/02 11:21:08;;;;;;;18.70;14.80;;;6.40;48.00;;;;;;5030317;28;20223;-90
2022/03/02 11:23:41;;;;;;;21.23;18.73;;;6.30;48.70;;;;;;5042951;28;20201;-90
2022/03/02 11:26:11;;;;;;;19.57;15.13;;;6.40;49.20;;;;;;5022399;28;20220;-89
2022/03/02 11:28:37;;;;;;;16.67;14.87;;;6.60;48.50;;;;;;5026997;28;20189;-89
2022/03/02 11:31:08;;;;;;;16.63;14.93;;;6.60;48.50;;;;;;5044136;28;20240;-89
2022/03/02 11:33:35;;;;;;;16.03;14.37;;;6.70;47.80;;;;;;5026361;28;20189;-90
2022/03/02 11:36:13;;;;;;;16.63;14.87;;;6.90;48.20;;;;;;5043316;28;20240;-89
2022/03/02 11:38:42;;;;;;;20.07;15.03;;;7.20;47.60;;;;;;5045117;28;20323;-88
2022/03/02 11:41:11;;;;;;;21.93;19.13;;;7.20;46.20;;;;;;5023787;28;20255;-88
2022/03/02 11:43:37;;;;;;;24.10;19.17;;;7.40;46.60;;;;;;5039925;28;20195;-89
2022/03/02 11:46:05;;;;;;;18.80;16.43;;;7.50;46.10;;;;;;5023459;28;20220;-90
2022/03/02 11:48:36;;;;;;;18.37;14.37;;;7.70;46.40;;;;;;5029461;28;20193;-90
2022/03/02 11:51:11;;;;;;;16.60;14.70;;;7.60;45.30;;;;;;5043258;28;20204;-89
2022/03/02 11:53:46;;;;;;;16.13;14.37;;;7.50;46.70;;;;;;5022516;28;20536;-91
2022/03/02 11:56:18;;;;;;;18.20;15.97;;;7.80;46.00;;;;;;5038607;28;20755;-88
2022/03/02 11:59:06;;;;;;;17.60;15.80;;;7.60;46.20;;;;;;5017292;28;20219;-89
2022/03/02 12:01:40;;;;;;;19.20;16.07;;;7.20;46.90;;;;;;5015341;28;20193;-89
2022/03/02 12:04:07;;;;;;;25.60;22.30;;;7.30;47.80;;;;;;5040122;28;20190;-89
2022/03/02 12:06:54;;;;;;;21.20;16.77;;;7.60;47.40;;;;;;5025969;28;20217;-88
2022/03/02 12:09:31;;;;;;;23.70;17.50;;;7.80;46.40;;;;;;5026574;28;20266;-88
2022/03/02 12:12:22;;;;;;;18.53;15.67;;;7.90;47.10;;;;;;5033829;28;20190;-88
2022/03/02 12:14:55;;;;;;;17.10;15.30;;;8.10;46.70;;;;;;5048664;28;20634;-90
2022/03/02 12:17:26;;;;;;;19.93;15.30;;;8.30;45.20;;;;;;5033936;28;20189;-89
2022/03/02 12:20:02;;;;;;;17.67;15.77;;;8.50;45.10;;;;;;5018295;28;20221;-90
2022/03/02 12:22:49;;;;;;;16.40;14.50;;;8.30;44.20;;;;;;5024346;28;20212;-88
2022/03/02 12:25:17;;;;;;;24.90;22.23;;;8.20;44.00;;;;;;5045609;28;20212;-88
2022/03/02 12:28:01;;;;;;;17.90;15.97;;;8.10;45.70;;;;;;5033816;28;20231;-89
2022/03/02 12:30:33;;;;;;;21.23;17.30;;;8.30;44.10;;;;;;5043223;28;20212;-88
2022/03/02 12:32:59;;;;;;;18.80;16.97;;;8.40;44.50;;;;;;5041059;28;20655;-89
2022/03/02 12:35:27;;;;;;;19.40;15.40;;;8.50;43.50;;;;;;5038879;28;20212;-88
2022/03/02 12:37:56;;;;;;;19.00;15.87;;;8.40;43.00;;;;;;5024439;28;20213;-88
2022/03/02 12:40:26;;;;;;;16.20;14.47;;;8.40;43.80;;;;;;5040638;28;20193;-89
2022/03/02 12:42:53;;;;;;;32.47;24.43;;;8.30;43.80;;;;;;5029552;28;20243;-89
2022/03/02 12:45:20;;;;;;;26.03;22.43;;;8.20;42.80;;;;;;5024863;28;20205;-89